createdAt,value
2022-12-26T00:00:32.218Z,9.58
2022-12-26T00:02:59.180Z,9.55
2022-12-26T00:05:25.949Z,9.53
2022-12-26T00:07:52.544Z,9.51
2022-12-26T00:10:19.446Z,9.46
2022-12-26T00:12:46.166Z,9.45
2022-12-26T00:15:12.759Z,9.42
2022-12-26T00:17:42.495Z,9.41
2022-12-26T00:20:09.834Z,9.40
2022-12-26T00:22:36.506Z,9.37
2022-12-26T00:25:03.350Z,9.39
2022-12-26T00:27:29.955Z,9.39
2022-12-26T00:29:56.630Z,9.38
2022-12-26T00:32:26.294Z,9.39
2022-12-26T00:34:55.637Z,9.39
2022-12-26T00:37:22.380Z,9.40
2022-12-26T00:39:49.023Z,9.36
2022-12-26T00:42:15.764Z,9.36
2022-12-26T00:44:42.437Z,9.37
2022-12-26T00:47:09.154Z,9.41
2022-12-26T00:50:13.727Z,9.49
2022-12-26T00:52:22.513Z,9.42
2022-12-26T00:54:51.689Z,9.41
2022-12-26T00:57:18.391Z,9.41
2022-12-26T00:59:45.073Z,9.43
2022-12-26T01:02:31.771Z,9.40
2022-12-26T01:04:58.588Z,9.35
2022-12-26T01:07:27.106Z,9.36
2022-12-26T01:09:53.851Z,9.36
2022-12-26T01:12:20.474Z,9.34
2022-12-26T01:14:47.342Z,9.34
2022-12-26T01:17:14.185Z,9.39
2022-12-26T01:19:40.802Z,9.38
2022-12-26T01:22:07.446Z,9.39
2022-12-26T01:24:34.395Z,9.46
2022-12-26T01:27:01.089Z,9.43
2022-12-26T01:29:27.935Z,9.34
2022-12-26T01:31:54.708Z,9.36
2022-12-26T01:34:21.627Z,9.38
2022-12-26T01:36:48.296Z,9.45
2022-12-26T01:39:15.819Z,9.48
2022-12-26T01:41:42.453Z,9.46
2022-12-26T01:44:46.329Z,9.47
2022-12-26T01:47:15.483Z,9.43
2022-12-26T01:49:44.324Z,9.46
2022-12-26T01:52:29.110Z,9.44
2022-12-26T01:54:56.653Z,9.45
2022-12-26T01:57:29.436Z,9.46
2022-12-26T01:59:58.570Z,9.45
2022-12-26T02:02:28.515Z,9.44
2022-12-26T02:05:16.452Z,9.43
2022-12-26T02:07:46.004Z,9.44
2022-12-26T02:10:20.631Z,9.47
2022-12-26T02:12:48.619Z,9.46
2022-12-26T02:15:17.516Z,9.47
2022-12-26T02:17:44.939Z,9.47
2022-12-26T02:21:04.187Z,9.45
2022-12-26T02:23:49.578Z,9.40
2022-12-26T02:26:37.629Z,9.37
2022-12-26T02:29:35.840Z,9.35
2022-12-26T02:32:21.105Z,9.37
2022-12-26T02:35:00.626Z,9.44
2022-12-26T02:37:34.620Z,9.52
2022-12-26T02:40:11.292Z,9.47
2022-12-26T02:43:05.970Z,9.45
2022-12-26T02:46:01.939Z,9.46
2022-12-26T02:48:31.642Z,9.53
2022-12-26T02:51:44.756Z,9.51
2022-12-26T02:54:42.106Z,9.57
2022-12-26T02:57:35.298Z,9.65
2022-12-26T03:00:41.195Z,9.65
2022-12-26T03:03:33.138Z,9.70
2022-12-26T03:06:31.664Z,9.62
2022-12-26T03:09:27.232Z,9.63
2022-12-26T03:12:19.018Z,9.64
2022-12-26T03:14:54.242Z,9.71
2022-12-26T03:17:41.575Z,9.85
2022-12-26T03:20:18.705Z,9.89
2022-12-26T03:23:14.263Z,10.00
2022-12-26T03:26:11.602Z,10.04
2022-12-26T03:28:39.393Z,10.00
2022-12-26T03:31:11.389Z,10.00
2022-12-26T03:34:00.816Z,10.01
2022-12-26T03:36:30.306Z,10.05
2022-12-26T03:39:49.029Z,10.04
2022-12-26T03:42:55.679Z,10.07
2022-12-26T03:46:18.641Z,10.13
2022-12-26T03:49:14.867Z,10.21
2022-12-26T03:52:20.338Z,10.12
2022-12-26T03:55:55.324Z,10.09
2022-12-26T03:58:50.279Z,10.24
2022-12-26T04:01:40.307Z,10.11
2022-12-26T04:04:30.453Z,10.09
2022-12-26T04:07:27.149Z,10.22
2022-12-26T04:10:23.636Z,10.21
2022-12-26T04:13:11.060Z,10.23
2022-12-26T04:16:09.757Z,10.25
2022-12-26T04:19:02.706Z,10.22
2022-12-26T04:22:00.630Z,10.20
2022-12-26T04:24:51.259Z,10.23
2022-12-26T04:27:40.810Z,10.30
2022-12-26T04:30:26.508Z,10.32
2022-12-26T04:33:15.307Z,10.25
2022-12-26T04:36:16.713Z,10.20
2022-12-26T04:39:07.932Z,10.29
2022-12-26T04:41:55.286Z,10.36
2022-12-26T04:44:24.413Z,10.35
2022-12-26T04:46:53.686Z,10.36
2022-12-26T04:49:38.783Z,10.32
2022-12-26T04:52:08.635Z,10.38
2022-12-26T04:54:35.550Z,10.35
2022-12-26T04:57:02.259Z,10.35
2022-12-26T04:59:28.963Z,10.33
2022-12-26T05:02:14.187Z,10.36
2022-12-26T05:04:59.202Z,10.32
2022-12-26T05:07:47.881Z,10.28
2022-12-26T05:10:32.360Z,10.21
2022-12-26T05:12:58.980Z,10.15
2022-12-26T05:15:25.787Z,10.19
2022-12-26T05:18:11.143Z,10.18
2022-12-26T05:20:58.280Z,10.24
2022-12-26T05:23:46.332Z,10.24
2022-12-26T05:26:37.445Z,10.26
2022-12-26T05:29:04.323Z,10.19
2022-12-26T05:31:36.031Z,10.18
2022-12-26T05:34:22.439Z,10.12
2022-12-26T05:36:53.380Z,10.16
2022-12-26T05:39:20.144Z,10.18
2022-12-26T05:41:46.825Z,10.16
2022-12-26T05:44:13.516Z,10.20
2022-12-26T05:46:42.525Z,10.26
2022-12-26T05:49:10.121Z,10.21
2022-12-26T05:51:36.825Z,10.21
2022-12-26T05:54:03.883Z,10.24
2022-12-26T05:56:30.879Z,10.27
2022-12-26T05:58:59.791Z,10.28
2022-12-26T06:01:28.507Z,10.25
2022-12-26T06:03:57.917Z,10.26
2022-12-26T06:06:25.480Z,10.22
2022-12-26T06:08:54.457Z,10.16
2022-12-26T06:11:23.063Z,10.13
2022-12-26T06:13:49.740Z,10.13
2022-12-26T06:16:19.016Z,10.10
2022-12-26T06:18:46.689Z,10.14
2022-12-26T06:21:16.321Z,10.17
2022-12-26T06:23:43.802Z,10.15
2022-12-26T06:26:12.746Z,10.12
2022-12-26T06:28:41.630Z,10.12
2022-12-26T06:31:11.343Z,10.13
2022-12-26T06:33:38.377Z,10.09
2022-12-26T06:36:09.724Z,10.17
2022-12-26T06:38:36.436Z,10.14
2022-12-26T06:41:05.701Z,10.11
2022-12-26T06:43:32.855Z,10.07
2022-12-26T06:46:00.883Z,10.04
2022-12-26T06:48:28.021Z,10.04
2022-12-26T06:50:55.033Z,10.02
2022-12-26T06:53:22.868Z,10.03
2022-12-26T06:55:50.277Z,10.08
2022-12-26T06:58:17.639Z,10.09
2022-12-26T07:00:44.456Z,10.05
2022-12-26T07:03:11.373Z,10.04
2022-12-26T07:05:38.916Z,10.08
2022-12-26T07:08:05.793Z,10.11
2022-12-26T07:10:36.503Z,10.06
2022-12-26T07:13:03.170Z,10.07
2022-12-26T07:15:29.847Z,10.08
2022-12-26T07:17:56.497Z,10.00
2022-12-26T07:20:23.110Z,10.02
2022-12-26T07:22:49.769Z,10.01
2022-12-26T07:25:16.422Z,10.05
2022-12-26T07:27:43.034Z,10.13
2022-12-26T07:30:10.458Z,10.07
2022-12-26T07:32:37.099Z,10.04
2022-12-26T07:35:03.889Z,10.05
2022-12-26T07:37:30.527Z,10.06
2022-12-26T07:39:59.357Z,10.02
2022-12-26T07:42:26.447Z,9.99
2022-12-26T07:44:53.082Z,9.97
2022-12-26T07:47:19.742Z,9.99
2022-12-26T07:49:47.931Z,10.03
2022-12-26T07:52:14.610Z,10.00
2022-12-26T07:54:41.235Z,10.05
2022-12-26T07:57:47.552Z,9.99
2022-12-26T07:59:54.528Z,9.98
2022-12-26T08:02:21.342Z,9.88
2022-12-26T08:04:48.084Z,9.82
2022-12-26T08:07:14.787Z,9.81
2022-12-26T08:09:43.145Z,9.74
2022-12-26T08:12:09.992Z,9.76
2022-12-26T08:14:40.717Z,9.71
2022-12-26T08:17:08.192Z,9.71
2022-12-26T08:19:34.912Z,9.75
2022-12-26T08:22:01.528Z,9.75
2022-12-26T08:24:28.134Z,9.77
2022-12-26T08:26:54.819Z,9.76
2022-12-26T08:29:21.437Z,9.79
2022-12-26T08:31:48.069Z,9.76
2022-12-26T08:34:14.711Z,9.79
2022-12-26T08:36:41.502Z,9.81
2022-12-26T08:39:08.215Z,9.78
2022-12-26T08:41:34.892Z,9.83
2022-12-26T08:44:26.935Z,9.84
2022-12-26T08:46:48.375Z,9.85
2022-12-26T08:49:14.997Z,9.81
2022-12-26T08:51:41.738Z,9.81
2022-12-26T08:54:08.472Z,9.86
2022-12-26T08:56:35.170Z,9.91
2022-12-26T08:59:01.908Z,9.89
2022-12-26T09:01:31.195Z,9.90
2022-12-26T09:04:02.108Z,9.91
2022-12-26T09:06:31.474Z,9.92
2022-12-26T09:08:59.743Z,9.96
2022-12-26T09:11:27.083Z,9.95
2022-12-26T09:13:53.851Z,9.94
2022-12-26T09:16:23.461Z,9.92
2022-12-26T09:18:55.720Z,9.92
2022-12-26T09:21:22.476Z,9.93
2022-12-26T09:23:49.083Z,9.95
2022-12-26T09:26:19.694Z,9.96
2022-12-26T09:28:47.303Z,9.85
2022-12-26T09:31:16.228Z,9.73
2022-12-26T09:33:43.232Z,9.51
2022-12-26T09:36:15.077Z,9.37
2022-12-26T09:38:44.033Z,9.02
2022-12-26T09:41:16.566Z,9.06
2022-12-26T09:43:50.051Z,8.85
2022-12-26T09:46:40.335Z,8.77
2022-12-26T09:49:11.513Z,8.81
2022-12-26T09:51:41.872Z,8.82
2022-12-26T09:54:18.199Z,8.77
2022-12-26T09:57:02.407Z,8.59
2022-12-26T09:59:32.764Z,8.58
2022-12-26T10:01:59.446Z,8.57
2022-12-26T10:04:30.229Z,8.64
2022-12-26T10:07:17.377Z,8.68
2022-12-26T10:09:55.755Z,8.58
2022-12-26T10:12:28.488Z,8.53
2022-12-26T10:15:04.307Z,8.49
2022-12-26T10:17:47.021Z,8.48
2022-12-26T10:20:22.450Z,8.45
2022-12-26T10:22:55.081Z,8.30
2022-12-26T10:26:00.909Z,8.26
2022-12-26T10:29:16.886Z,8.24
2022-12-26T10:31:49.859Z,8.15
2022-12-26T10:34:35.145Z,8.09
2022-12-26T10:37:10.170Z,8.03
2022-12-26T10:39:54.962Z,8.04
2022-12-26T10:42:37.451Z,8.03
2022-12-26T10:45:13.112Z,8.03
2022-12-26T10:47:41.767Z,8.05
2022-12-26T10:50:23.844Z,8.05
2022-12-26T10:52:54.158Z,8.02
2022-12-26T10:55:35.295Z,7.99
2022-12-26T10:58:09.939Z,8.04
2022-12-26T11:00:36.577Z,8.15
2022-12-26T11:03:09.085Z,8.18
2022-12-26T11:08:51.881Z,8.44
2022-12-26T11:11:18.471Z,8.53
2022-12-26T11:14:00.917Z,8.53
2022-12-26T11:16:38.684Z,8.47
2022-12-26T11:19:05.565Z,8.46
2022-12-26T11:21:33.400Z,8.50
2022-12-26T11:24:09.160Z,8.50
2022-12-26T11:26:37.093Z,8.50
2022-12-26T11:29:13.933Z,8.48
2022-12-26T11:31:43.779Z,8.52
2022-12-26T11:34:17.316Z,8.47
2022-12-26T11:36:50.261Z,8.58
2022-12-26T11:39:38.061Z,8.67
2022-12-26T11:42:12.700Z,8.67
2022-12-26T11:44:45.052Z,8.68
2022-12-26T11:47:17.656Z,8.77
2022-12-26T11:50:04.155Z,8.83
2022-12-26T11:52:52.930Z,8.86
2022-12-26T11:55:22.466Z,8.90
2022-12-26T11:57:58.869Z,8.93
2022-12-26T12:00:27.262Z,8.97
2022-12-26T12:02:54.247Z,9.03
2022-12-26T12:05:38.517Z,8.96
2022-12-26T12:08:17.185Z,8.98
2022-12-26T12:10:56.917Z,8.97
2022-12-26T12:13:23.453Z,9.00
2022-12-26T12:16:16.369Z,8.90
2022-12-26T12:19:07.966Z,9.03
2022-12-26T12:22:02.118Z,9.06
2022-12-26T12:24:42.764Z,9.08
2022-12-26T12:27:34.573Z,9.11
2022-12-26T12:30:15.664Z,9.11
2022-12-26T12:33:00.848Z,9.14
2022-12-26T12:35:57.205Z,9.16
2022-12-26T12:38:24.692Z,9.21
2022-12-26T12:41:17.363Z,9.23
2022-12-26T12:43:55.699Z,9.27
2022-12-26T12:46:55.204Z,9.34
2022-12-26T12:50:12.728Z,9.32
2022-12-26T12:52:57.531Z,9.32
2022-12-26T12:55:26.993Z,9.33
2022-12-26T12:57:59.862Z,9.31
2022-12-26T13:00:34.042Z,9.34
2022-12-26T13:03:10.493Z,9.38
2022-12-26T13:06:09.373Z,9.44
2022-12-26T13:08:42.649Z,9.47
2022-12-26T13:11:33.104Z,9.45
2022-12-26T13:14:34.613Z,9.46
2022-12-26T13:17:06.569Z,9.52
2022-12-26T13:20:03.188Z,9.53
2022-12-26T13:23:02.111Z,9.50
2022-12-26T13:25:43.400Z,9.57
2022-12-26T13:28:28.003Z,9.55
2022-12-26T13:30:56.031Z,9.58
2022-12-26T13:33:23.201Z,9.59
2022-12-26T13:35:55.295Z,9.62
2022-12-26T13:38:24.267Z,9.61
2022-12-26T13:41:18.420Z,9.62
2022-12-26T13:44:05.371Z,9.59
2022-12-26T13:46:40.705Z,9.56
2022-12-26T13:49:27.912Z,9.55
2022-12-26T13:52:00.407Z,9.55
2022-12-26T13:54:28.819Z,9.53
2022-12-26T13:57:10.786Z,9.50
2022-12-26T13:59:49.087Z,9.56
2022-12-26T14:02:58.620Z,9.50
2022-12-26T14:05:39.057Z,9.49
2022-12-26T14:08:22.034Z,9.51
2022-12-26T14:11:32.458Z,9.43
2022-12-26T14:14:32.966Z,9.42
2022-12-26T14:17:35.072Z,9.40
2022-12-26T14:20:26.551Z,9.37
2022-12-26T14:23:11.251Z,9.32
2022-12-26T14:25:54.158Z,9.27
2022-12-26T14:28:35.191Z,9.26
2022-12-26T14:31:07.438Z,9.34
2022-12-26T14:33:46.856Z,9.31
2022-12-26T14:36:19.941Z,9.23
2022-12-26T14:38:52.623Z,9.19
2022-12-26T14:41:39.118Z,9.14
2022-12-26T14:44:28.703Z,9.14
2022-12-26T14:46:59.190Z,9.11
2022-12-26T14:49:35.423Z,9.10
2022-12-26T14:52:24.275Z,9.07
2022-12-26T14:54:55.138Z,9.03
2022-12-26T14:57:43.862Z,8.93
2022-12-26T15:00:16.808Z,8.92
2022-12-26T15:02:48.182Z,8.85
2022-12-26T15:05:20.894Z,8.87
2022-12-26T15:08:10.526Z,8.80
2022-12-26T15:10:55.389Z,8.75
2022-12-26T15:13:28.124Z,8.72
2022-12-26T15:16:16.099Z,8.69
2022-12-26T15:19:14.015Z,8.72
2022-12-26T15:22:06.106Z,8.68
2022-12-26T15:28:38.711Z,8.69
2022-12-26T15:31:17.102Z,8.68
2022-12-26T15:33:59.914Z,8.66
2022-12-26T15:36:49.678Z,8.69
2022-12-26T15:39:28.433Z,8.66
2022-12-26T15:42:13.272Z,8.65
2022-12-26T15:44:52.217Z,8.63
2022-12-26T15:47:23.773Z,8.60
2022-12-26T15:49:56.633Z,8.60
2022-12-26T15:53:01.721Z,8.59
2022-12-26T15:55:46.932Z,8.58
2022-12-26T15:58:38.591Z,8.58
2022-12-26T16:01:05.746Z,8.57
2022-12-26T16:04:03.860Z,8.54
2022-12-26T16:06:52.134Z,8.50
2022-12-26T16:09:54.843Z,8.45
2022-12-26T16:12:21.625Z,8.45
2022-12-26T16:14:48.895Z,8.41
2022-12-26T16:17:15.499Z,8.37
2022-12-26T16:19:52.826Z,8.36
2022-12-26T16:22:43.883Z,8.33
2022-12-26T16:25:31.041Z,8.28
2022-12-26T16:28:00.060Z,8.30
2022-12-26T16:30:38.240Z,8.27
2022-12-26T16:33:05.514Z,8.24
2022-12-26T16:35:35.078Z,8.20
2022-12-26T16:38:04.111Z,8.23
2022-12-26T16:40:33.067Z,8.25
2022-12-26T16:43:24.662Z,8.26
2022-12-26T16:45:54.710Z,8.21
2022-12-26T16:48:24.256Z,8.19
2022-12-26T16:51:00.682Z,8.23
2022-12-26T16:53:36.857Z,8.25
2022-12-26T16:56:31.209Z,8.29
2022-12-26T16:59:22.520Z,8.26
2022-12-26T17:01:51.604Z,8.22
2022-12-26T17:04:26.643Z,8.08
2022-12-26T17:07:01.983Z,7.88
2022-12-26T17:09:32.039Z,7.71
2022-12-26T17:12:05.053Z,7.38
2022-12-26T17:14:38.356Z,7.41
2022-12-26T17:17:08.733Z,7.22
2022-12-26T17:19:37.045Z,7.13
2022-12-26T17:22:31.100Z,7.04
2022-12-26T17:25:30.383Z,6.95
2022-12-26T17:28:09.772Z,6.78
2022-12-26T17:30:41.299Z,6.74
2022-12-26T17:33:15.532Z,6.70
2022-12-26T17:36:38.193Z,6.80
2022-12-26T17:38:32.117Z,6.78
2022-12-26T17:41:03.962Z,6.73
2022-12-26T17:43:33.328Z,6.64
2022-12-26T17:46:00.738Z,6.60
2022-12-26T17:48:27.776Z,6.62
2022-12-26T17:50:57.872Z,6.62
2022-12-26T17:53:40.376Z,6.61
2022-12-26T17:56:17.884Z,6.60
2022-12-26T17:58:44.675Z,6.55
2022-12-26T18:01:15.968Z,6.58
2022-12-26T18:03:45.820Z,6.54
2022-12-26T18:06:16.678Z,6.57
2022-12-26T18:08:44.288Z,6.61
2022-12-26T18:11:13.208Z,6.53
2022-12-26T18:13:40.359Z,6.51
2022-12-26T18:16:07.849Z,6.55
2022-12-26T18:18:42.837Z,6.55
2022-12-26T18:21:12.171Z,6.48
2022-12-26T18:23:39.793Z,6.46
2022-12-26T18:26:24.308Z,6.47
2022-12-26T18:28:52.007Z,6.50
2022-12-26T18:31:19.067Z,6.47
2022-12-26T18:33:45.802Z,6.44
2022-12-26T18:36:13.361Z,6.46
2022-12-26T18:38:40.038Z,6.46
2022-12-26T18:41:07.344Z,6.44
2022-12-26T18:43:33.939Z,6.44
2022-12-26T18:46:00.581Z,6.42
2022-12-26T18:48:27.345Z,6.40
2022-12-26T18:50:54.430Z,6.40
2022-12-26T18:53:21.070Z,6.39
2022-12-26T18:55:47.758Z,6.36
2022-12-26T18:58:14.481Z,6.40
2022-12-26T19:00:41.161Z,6.43
2022-12-26T19:03:07.871Z,6.43
2022-12-26T19:05:34.590Z,6.48
2022-12-26T19:08:02.224Z,6.50
2022-12-26T19:10:32.229Z,6.44
2022-12-26T19:13:05.572Z,6.46
2022-12-26T19:15:34.667Z,6.47
2022-12-26T19:18:01.532Z,6.49
2022-12-26T19:20:28.386Z,6.48
2022-12-26T19:22:55.652Z,6.38
2022-12-26T19:25:24.666Z,6.35
2022-12-26T19:27:52.055Z,6.27
2022-12-26T19:30:20.335Z,6.09
2022-12-26T19:32:47.177Z,6.06
2022-12-26T19:35:15.085Z,6.05
2022-12-26T19:37:41.984Z,6.08
2022-12-26T19:40:09.790Z,5.94
2022-12-26T19:42:37.477Z,5.98
2022-12-26T19:45:09.679Z,5.87
2022-12-26T19:47:37.131Z,5.83
2022-12-26T19:50:05.417Z,5.84
2022-12-26T19:52:32.290Z,5.83
2022-12-26T19:54:58.927Z,5.79
2022-12-26T19:57:25.549Z,5.78
2022-12-26T19:59:52.123Z,5.81
2022-12-26T20:02:18.940Z,5.73
2022-12-26T20:04:45.953Z,5.65
2022-12-26T20:07:12.573Z,5.49
2022-12-26T20:09:39.368Z,5.49
2022-12-26T20:12:06.222Z,5.46
2022-12-26T20:14:32.965Z,5.45
2022-12-26T20:17:06.157Z,5.44
2022-12-26T20:19:34.190Z,5.32
2022-12-26T20:22:00.904Z,5.22
2022-12-26T20:24:27.514Z,5.15
2022-12-26T20:26:54.559Z,5.16
2022-12-26T20:29:21.755Z,5.11
2022-12-26T20:31:49.434Z,5.06
2022-12-26T20:34:16.595Z,5.00
2022-12-26T20:36:43.505Z,5.04
2022-12-26T20:39:15.782Z,4.91
2022-12-26T20:41:43.033Z,4.91
2022-12-26T20:44:14.812Z,4.83
2022-12-26T20:46:42.654Z,4.88
2022-12-26T20:49:10.015Z,4.92
2022-12-26T20:51:38.962Z,4.86
2022-12-26T20:54:07.783Z,4.88
2022-12-26T20:56:35.601Z,4.88
2022-12-26T20:59:03.303Z,4.85
2022-12-26T21:01:30.137Z,4.81
2022-12-26T21:03:57.935Z,4.78
2022-12-26T21:06:30.466Z,4.72
2022-12-26T21:08:57.796Z,4.73
2022-12-26T21:11:27.471Z,4.78
2022-12-26T21:14:00.470Z,4.69
2022-12-26T21:16:30.268Z,4.65
2022-12-26T21:18:57.969Z,4.59
2022-12-26T21:21:27.462Z,4.55
2022-12-26T21:23:58.550Z,4.50
2022-12-26T21:26:26.523Z,4.52
2022-12-26T21:28:58.472Z,4.57
2022-12-26T21:31:25.608Z,4.54
2022-12-26T21:33:55.288Z,4.50
2022-12-26T21:36:22.137Z,4.52
2022-12-26T21:38:48.777Z,4.57
2022-12-26T21:41:16.911Z,4.60
2022-12-26T21:43:43.482Z,4.61
2022-12-26T21:46:14.213Z,4.54
2022-12-26T21:48:47.374Z,4.56
2022-12-26T21:51:19.329Z,4.44
2022-12-26T21:53:46.907Z,4.44
2022-12-26T21:56:15.729Z,4.43
2022-12-26T21:59:01.840Z,4.41
2022-12-26T22:01:30.203Z,4.34
2022-12-26T22:04:15.858Z,4.36
2022-12-26T22:06:43.158Z,4.32
2022-12-26T22:09:10.909Z,4.25
2022-12-26T22:11:56.076Z,4.18
2022-12-26T22:14:23.008Z,4.07
2022-12-26T22:16:53.956Z,3.86
2022-12-26T22:19:20.899Z,3.77
2022-12-26T22:21:47.616Z,3.70
2022-12-26T22:24:14.988Z,3.76
2022-12-26T22:26:41.708Z,3.66
2022-12-26T22:29:08.653Z,3.57
2022-12-26T22:31:36.942Z,3.39
2022-12-26T22:34:06.865Z,3.27
2022-12-26T22:36:34.305Z,3.22
2022-12-26T22:39:01.099Z,3.15
2022-12-26T22:41:28.708Z,2.98
2022-12-26T22:43:55.978Z,2.96
2022-12-26T22:46:22.845Z,2.89
2022-12-26T22:48:50.036Z,2.85
2022-12-26T22:51:18.885Z,2.77
2022-12-26T22:53:46.019Z,2.76
2022-12-26T22:56:13.336Z,2.69
2022-12-26T22:58:39.974Z,2.65
2022-12-26T23:01:18.440Z,2.61
2022-12-26T23:03:45.832Z,2.49
2022-12-26T23:06:30.989Z,2.44
2022-12-26T23:09:00.024Z,2.43
2022-12-26T23:11:34.306Z,2.38
2022-12-26T23:14:03.389Z,2.34
2022-12-26T23:16:45.344Z,2.25
2022-12-26T23:20:03.004Z,2.23
2022-12-26T23:22:29.998Z,2.10
2022-12-26T23:24:56.683Z,2.10
2022-12-26T23:27:41.810Z,2.09
2022-12-26T23:30:18.064Z,2.06
2022-12-26T23:32:52.459Z,2.06
2022-12-26T23:35:21.901Z,2.00
2022-12-26T23:37:48.429Z,1.94
2022-12-26T23:40:16.460Z,1.91
2022-12-26T23:42:43.617Z,1.87
2022-12-26T23:45:11.596Z,1.85
2022-12-26T23:47:40.129Z,1.78
2022-12-26T23:50:09.005Z,1.78
2022-12-26T23:52:36.031Z,1.77
2022-12-26T23:55:03.105Z,1.73
2022-12-26T23:57:29.702Z,1.69
2022-12-26T23:59:56.306Z,1.69
